Time;durP1;ratioP1;P1;durP2;ratioP2;P2;SDS_P1;SDS_P2;PMS_P1;PMS_P2;Temp;Humidity;BMP_temperature;BMP_pressure;BME280_temperature;BME280_humidity;BME280_pressure;Samples;Min_cycle;Max_cycle;Signal;HPM_P1;HPM_P2
2022/02/19 00:00:23;;;;;;;10.57;2.60;;;7.00;62.30;;;;;;5017517;28;20101;-88
2022/02/19 00:02:49;;;;;;;10.82;2.38;;;7.00;62.40;;;;;;5010198;28;20534;-87
2022/02/19 00:05:15;;;;;;;8.48;2.10;;;7.00;62.60;;;;;;5017970;28;20033;-89
2022/02/19 00:07:40;;;;;;;9.38;2.35;;;7.00;62.60;;;;;;5013378;28;20026;-89
2022/02/19 00:10:06;;;;;;;11.13;3.03;;;7.00;62.60;;;;;;5015719;28;20026;-87
2022/02/19 00:12:32;;;;;;;8.15;1.98;;;7.00;62.40;;;;;;5025640;28;20010;-87
2022/02/19 00:14:57;;;;;;;10.80;2.70;;;6.90;62.50;;;;;;5019116;28;20022;-86
2022/02/19 00:17:23;;;;;;;7.07;2.40;;;7.00;62.50;;;;;;5011643;28;20026;-87
2022/02/19 00:19:50;;;;;;;10.93;2.78;;;7.00;62.40;;;;;;5010658;28;20033;-88
2022/02/19 00:22:16;;;;;;;7.82;2.20;;;7.00;62.30;;;;;;5010042;28;20481;-86
2022/02/19 00:24:41;;;;;;;7.00;2.40;;;6.90;62.10;;;;;;5017974;28;20033;-87
2022/02/19 00:27:07;;;;;;;9.13;2.30;;;6.90;62.20;;;;;;5011344;28;20034;-86
2022/02/19 00:29:32;;;;;;;10.65;2.20;;;6.90;62.30;;;;;;5008916;28;20063;-86
2022/02/19 00:31:58;;;;;;;8.07;2.22;;;7.00;62.50;;;;;;5010189;28;20128;-88
2022/02/19 00:34:24;;;;;;;6.80;1.60;;;6.90;62.70;;;;;;5013910;28;20108;-86
2022/02/19 00:36:49;;;;;;;7.55;2.10;;;6.90;62.90;;;;;;5011706;28;20026;-88
2022/02/19 00:39:15;;;;;;;6.78;2.25;;;6.90;63.00;;;;;;5010743;28;20363;-87
2022/02/19 00:41:40;;;;;;;6.38;2.00;;;6.90;63.00;;;;;;5012409;28;20081;-88
2022/02/19 00:44:06;;;;;;;9.45;2.70;;;6.90;63.20;;;;;;5014251;28;20037;-88
2022/02/19 00:46:33;;;;;;;9.95;2.92;;;6.80;63.30;;;;;;5015684;28;20033;-87
2022/02/19 00:49:01;;;;;;;8.95;2.40;;;6.80;63.40;;;;;;5015594;28;20148;-88
2022/02/19 00:51:28;;;;;;;9.63;2.13;;;6.80;63.50;;;;;;5022049;28;20370;-87
2022/02/19 00:53:53;;;;;;;9.48;2.58;;;6.90;63.60;;;;;;5013977;28;20105;-88
2022/02/19 00:56:19;;;;;;;12.05;3.15;;;6.80;63.60;;;;;;5020511;28;20068;-88
2022/02/19 00:58:45;;;;;;;9.35;2.17;;;6.80;63.70;;;;;;5013051;28;20022;-90
2022/02/19 01:01:10;;;;;;;8.02;2.20;;;6.80;64.00;;;;;;5017661;28;20121;-88
2022/02/19 01:03:36;;;;;;;11.10;2.45;;;6.80;64.10;;;;;;5015114;28;20083;-87
2022/02/19 01:06:01;;;;;;;8.05;2.03;;;6.80;64.30;;;;;;5020386;28;20082;-87
2022/02/19 01:08:27;;;;;;;10.15;2.42;;;6.80;64.40;;;;;;5012631;28;20758;-88
2022/02/19 01:10:52;;;;;;;9.75;2.58;;;6.80;64.60;;;;;;5013419;28;20057;-88
2022/02/19 01:13:18;;;;;;;8.98;2.35;;;6.80;64.80;;;;;;5018680;28;20168;-87
2022/02/19 01:15:43;;;;;;;8.35;2.30;;;6.80;64.90;;;;;;5012313;28;20026;-88
2022/02/19 01:18:09;;;;;;;11.45;2.60;;;6.80;65.00;;;;;;5013070;28;20424;-88
2022/02/19 01:20:36;;;;;;;10.38;2.22;;;6.80;65.00;;;;;;5013795;28;20505;-87
2022/02/19 01:23:02;;;;;;;8.82;2.38;;;6.80;64.90;;;;;;5007403;28;20487;-87
2022/02/19 01:25:28;;;;;;;9.50;2.55;;;6.80;64.80;;;;;;5013402;28;20033;-88
2022/02/19 01:27:54;;;;;;;8.70;2.30;;;6.80;64.70;;;;;;5013653;28;20432;-91
2022/02/19 01:30:19;;;;;;;12.70;2.40;;;6.80;64.50;;;;;;5018213;28;20037;-89
2022/02/19 01:32:45;;;;;;;8.02;2.25;;;6.80;64.10;;;;;;5025861;28;20068;-88
2022/02/19 01:35:10;;;;;;;5.25;2.00;;;6.80;64.20;;;;;;5020280;28;20057;-91
2022/02/19 01:37:36;;;;;;;6.43;2.08;;;6.80;64.60;;;;;;5013482;28;20084;-90
2022/02/19 01:40:03;;;;;;;6.45;2.03;;;6.80;63.90;;;;;;5014918;28;20045;-91
2022/02/19 01:42:30;;;;;;;7.35;2.10;;;6.90;64.00;;;;;;5021296;28;20104;-90
2022/02/19 01:44:56;;;;;;;8.65;2.22;;;6.80;63.60;;;;;;5017529;28;20048;-91
2022/02/19 01:47:21;;;;;;;6.30;1.83;;;6.80;63.50;;;;;;5013928;28;20029;-89
2022/02/19 01:49:47;;;;;;;8.95;1.90;;;6.80;63.60;;;;;;5017705;28;20417;-87
2022/02/19 01:52:16;;;;;;;12.82;2.50;;;6.80;63.60;;;;;;5017796;28;20029;-89
2022/02/19 01:54:42;;;;;;;8.10;2.25;;;6.80;63.60;;;;;;5019584;28;20037;-90
2022/02/19 01:57:08;;;;;;;5.80;1.70;;;6.80;63.40;;;;;;5017482;28;20692;-90
2022/02/19 01:59:39;;;;;;;4.90;1.55;;;6.80;63.30;;;;;;5028197;28;20042;-91
2022/02/19 02:02:04;;;;;;;7.10;1.95;;;6.80;63.10;;;;;;5036955;28;20026;-88
2022/02/19 02:04:30;;;;;;;5.03;1.65;;;6.80;63.00;;;;;;5024197;28;20033;-90
2022/02/19 02:06:56;;;;;;;7.00;2.03;;;6.80;62.80;;;;;;5024909;28;20030;-93
2022/02/19 02:09:23;;;;;;;8.02;2.15;;;6.90;62.80;;;;;;5020068;28;20362;-88
2022/02/19 02:11:48;;;;;;;4.40;1.70;;;6.80;62.40;;;;;;5021778;28;20022;-92
2022/02/19 02:14:14;;;;;;;8.80;2.00;;;6.80;62.20;;;;;;5022963;28;20052;-90
2022/02/19 02:16:42;;;;;;;7.65;1.92;;;6.80;62.00;;;;;;5032303;28;20028;-91
2022/02/19 02:19:09;;;;;;;9.45;1.83;;;6.80;62.00;;;;;;5027769;28;20017;-91
2022/02/19 02:21:38;;;;;;;4.95;1.70;;;6.80;62.20;;;;;;5042460;28;20070;-91
2022/02/19 02:24:05;;;;;;;5.30;1.40;;;6.80;62.00;;;;;;5025654;28;20113;-91
2022/02/19 02:26:30;;;;;;;8.00;2.03;;;6.80;62.00;;;;;;5020057;28;20030;-89
2022/02/19 02:28:58;;;;;;;6.35;1.95;;;6.80;62.20;;;;;;5012770;28;20029;-89
2022/02/19 02:31:24;;;;;;;8.43;1.67;;;6.80;62.20;;;;;;5027143;28;20041;-88
2022/02/19 02:33:51;;;;;;;3.58;1.45;;;6.70;62.20;;;;;;5013474;28;20025;-87
2022/02/19 02:36:17;;;;;;;6.28;2.05;;;6.80;62.30;;;;;;5012363;28;20129;-88
2022/02/19 02:38:44;;;;;;;4.47;1.45;;;6.70;62.10;;;;;;5015400;28;20159;-88
2022/02/19 02:41:09;;;;;;;6.38;1.80;;;6.80;62.30;;;;;;5012897;28;20020;-89
2022/02/19 02:43:35;;;;;;;6.15;2.00;;;6.80;62.40;;;;;;5019748;28;20033;-87
2022/02/19 02:46:01;;;;;;;6.93;1.88;;;6.80;62.20;;;;;;5031952;28;20041;-90
2022/02/19 02:48:26;;;;;;;6.68;1.92;;;6.80;62.10;;;;;;5024302;28;20025;-90
2022/02/19 02:50:52;;;;;;;5.90;1.85;;;6.80;61.70;;;;;;5027243;28;20033;-91
2022/02/19 02:53:18;;;;;;;9.50;2.05;;;6.80;61.80;;;;;;5023423;28;20055;-90
2022/02/19 02:55:44;;;;;;;6.72;2.00;;;6.80;61.40;;;;;;5017042;28;20108;-92
2022/02/19 02:58:09;;;;;;;5.55;1.65;;;6.80;61.50;;;;;;5017924;28;20060;-91
2022/02/19 03:00:35;;;;;;;4.78;1.48;;;6.80;61.60;;;;;;5031185;28;20376;-89
2022/02/19 03:03:00;;;;;;;7.57;1.60;;;6.80;61.80;;;;;;5021633;28;20123;-86
2022/02/19 03:05:26;;;;;;;5.90;1.70;;;6.80;61.70;;;;;;5010398;28;20080;-86
2022/02/19 03:07:52;;;;;;;6.20;1.50;;;6.80;61.70;;;;;;5016425;28;20044;-84
2022/02/19 03:10:18;;;;;;;4.68;1.60;;;6.80;61.70;;;;;;5010924;28;20100;-88
2022/02/19 03:12:45;;;;;;;4.60;1.58;;;6.80;61.70;;;;;;5009036;28;20516;-87
2022/02/19 03:15:10;;;;;;;5.85;1.85;;;6.80;61.90;;;;;;5011539;28;20397;-89
2022/02/19 03:17:39;;;;;;;5.75;1.73;;;6.80;62.00;;;;;;5011407;28;20076;-88
2022/02/19 03:20:06;;;;;;;7.57;1.77;;;6.80;62.70;;;;;;5018486;28;20389;-88
2022/02/19 03:22:32;;;;;;;6.07;2.25;;;6.80;62.00;;;;;;5013154;28;20029;-88
2022/02/19 03:24:57;;;;;;;8.13;2.28;;;6.90;62.10;;;;;;5019852;28;20041;-88
2022/02/19 03:27:23;;;;;;;5.75;1.75;;;6.90;62.20;;;;;;5016289;28;20030;-88
2022/02/19 03:29:49;;;;;;;5.30;1.33;;;6.90;62.30;;;;;;5011671;28;20105;-86
2022/02/19 03:32:14;;;;;;;6.25;1.70;;;6.90;62.30;;;;;;5010383;28;20579;-87
2022/02/19 03:34:40;;;;;;;5.10;1.50;;;6.80;62.30;;;;;;5015175;28;20090;-88
2022/02/19 03:37:05;;;;;;;8.27;1.77;;;6.80;62.40;;;;;;5022389;28;20029;-88
2022/02/19 03:39:31;;;;;;;6.32;2.08;;;6.90;62.50;;;;;;5012164;28;20025;-89
2022/02/19 03:41:57;;;;;;;6.38;1.75;;;6.80;62.50;;;;;;5014297;28;20173;-88
2022/02/19 03:44:23;;;;;;;5.75;1.50;;;6.80;62.60;;;;;;5011223;28;20477;-88
2022/02/19 03:46:48;;;;;;;11.02;2.20;;;6.80;62.80;;;;;;5011418;28;20040;-89
2022/02/19 03:49:14;;;;;;;11.23;2.22;;;6.80;62.80;;;;;;5015819;28;20384;-89
2022/02/19 03:51:40;;;;;;;7.28;1.88;;;6.80;62.80;;;;;;5016735;28;20062;-91
2022/02/19 03:54:05;;;;;;;8.50;2.00;;;6.80;63.00;;;;;;5013655;28;20041;-92
2022/02/19 03:56:31;;;;;;;7.63;1.98;;;6.80;63.10;;;;;;5019478;28;20030;-90
2022/02/19 03:58:57;;;;;;;9.63;2.13;;;6.80;62.90;;;;;;5019831;28;20246;-88
2022/02/19 04:01:23;;;;;;;13.90;2.42;;;6.70;62.80;;;;;;5018234;28;20060;-92
2022/02/19 04:03:49;;;;;;;10.48;2.05;;;6.70;63.00;;;;;;5023177;28;20022;-88
2022/02/19 04:06:14;;;;;;;4.97;1.77;;;6.80;63.10;;;;;;5031292;28;20056;-92
2022/02/19 04:08:40;;;;;;;8.30;2.00;;;6.80;63.00;;;;;;5022056;28;20038;-93
2022/02/19 04:11:13;;;;;;;9.80;2.40;;;6.70;63.00;;;;;;5033274;28;20116;-91
2022/02/19 04:13:39;;;;;;;6.75;2.10;;;6.80;63.30;;;;;;4996869;28;20397;-92
2022/02/19 04:16:04;;;;;;;8.32;1.80;;;6.70;63.20;;;;;;5014239;28;20026;-91
2022/02/19 04:18:30;;;;;;;9.00;2.20;;;6.80;63.20;;;;;;5019267;28;20018;-92
2022/02/19 04:20:56;;;;;;;7.13;1.67;;;6.70;63.10;;;;;;5018069;28;20014;-91
2022/02/19 04:23:21;;;;;;;10.68;2.15;;;6.70;63.20;;;;;;5027608;28;20014;-89
2022/02/19 04:25:47;;;;;;;8.27;2.55;;;6.80;63.20;;;;;;5021789;28;20025;-89
2022/02/19 04:28:12;;;;;;;9.10;2.00;;;6.70;62.90;;;;;;5030710;28;20022;-88
2022/02/19 04:30:38;;;;;;;8.18;2.10;;;6.70;63.10;;;;;;5019090;28;20556;-87
2022/02/19 04:33:04;;;;;;;8.35;2.28;;;6.80;63.00;;;;;;5021720;28;20496;-88
2022/02/19 04:35:31;;;;;;;7.57;1.75;;;6.80;62.90;;;;;;5018699;28;20033;-87
2022/02/19 04:37:57;;;;;;;8.02;1.92;;;6.80;63.00;;;;;;5017691;28;20065;-87
2022/02/19 04:40:24;;;;;;;8.45;2.17;;;6.80;62.90;;;;;;5016176;28;20017;-85
2022/02/19 04:42:49;;;;;;;8.75;2.13;;;6.80;62.60;;;;;;5013929;28;20032;-87
2022/02/19 04:45:15;;;;;;;7.68;2.08;;;6.70;62.70;;;;;;5016193;28;20120;-87
2022/02/19 04:47:42;;;;;;;10.20;2.17;;;6.70;62.80;;;;;;5016414;28;20834;-90
2022/02/19 04:50:09;;;;;;;5.45;1.80;;;6.70;62.80;;;;;;5018260;28;20049;-89
2022/02/19 04:52:35;;;;;;;8.75;2.42;;;6.70;62.70;;;;;;5015196;28;20447;-89
2022/02/19 04:55:00;;;;;;;7.78;2.33;;;6.70;62.50;;;;;;5014786;28;20113;-89
2022/02/19 04:57:26;;;;;;;7.03;2.10;;;6.70;62.50;;;;;;5028876;28;20013;-89
2022/02/19 04:59:52;;;;;;;5.82;1.80;;;6.70;62.60;;;;;;5018548;28;20040;-89
2022/02/19 05:02:17;;;;;;;8.30;2.35;;;6.70;62.60;;;;;;5029542;28;20032;-88
2022/02/19 05:04:43;;;;;;;7.28;2.22;;;6.70;62.50;;;;;;5024267;28;20040;-89
2022/02/19 05:07:10;;;;;;;9.50;1.70;;;6.70;62.30;;;;;;5015253;28;20101;-88
2022/02/19 05:09:35;;;;;;;7.88;2.17;;;6.70;62.30;;;;;;5022665;28;20018;-89
2022/02/19 05:12:01;;;;;;;6.68;2.20;;;6.70;62.40;;;;;;5021525;28;20033;-86
2022/02/19 05:14:27;;;;;;;8.88;2.42;;;6.70;62.00;;;;;;5014261;28;20021;-86
2022/02/19 05:16:52;;;;;;;7.90;2.17;;;6.70;62.00;;;;;;5014054;28;20087;-87
2022/02/19 05:19:18;;;;;;;8.55;1.73;;;6.70;62.00;;;;;;5015857;28;20099;-90
2022/02/19 05:21:43;;;;;;;7.28;1.90;;;6.70;61.90;;;;;;5014310;28;20030;-90
2022/02/19 05:24:09;;;;;;;12.65;2.45;;;6.70;61.90;;;;;;5013603;28;20025;-89
2022/02/19 05:26:35;;;;;;;6.68;2.10;;;6.70;61.90;;;;;;5020943;28;20037;-90
2022/02/19 05:29:00;;;;;;;9.77;1.92;;;6.70;61.60;;;;;;5024858;28;20037;-88
2022/02/19 05:31:26;;;;;;;7.68;2.25;;;6.60;61.60;;;;;;5010946;28;20092;-88
2022/02/19 05:33:51;;;;;;;9.25;1.98;;;6.60;61.60;;;;;;5014694;28;20077;-88
2022/02/19 05:36:17;;;;;;;8.15;1.83;;;6.60;61.60;;;;;;5016156;28;20079;-87
2022/02/19 05:38:42;;;;;;;8.93;2.15;;;6.60;61.70;;;;;;5022873;28;20061;-85
2022/02/19 05:41:08;;;;;;;6.38;1.60;;;6.60;61.70;;;;;;5012949;28;20076;-86
2022/02/19 05:43:33;;;;;;;9.02;2.00;;;6.60;61.90;;;;;;5011474;28;20049;-86
2022/02/19 05:45:59;;;;;;;8.25;2.05;;;6.60;62.10;;;;;;5011802;28;20392;-84
2022/02/19 05:48:24;;;;;;;8.88;1.90;;;6.50;62.10;;;;;;5009447;28;20034;-85
2022/02/19 05:50:50;;;;;;;6.30;1.73;;;6.50;62.40;;;;;;5013689;28;20029;-87
2022/02/19 05:53:16;;;;;;;7.00;1.80;;;6.50;62.60;;;;;;5011407;28;20022;-85
2022/02/19 05:55:42;;;;;;;7.57;2.20;;;6.50;62.80;;;;;;5012321;28;20476;-85
2022/02/19 05:58:08;;;;;;;8.30;1.83;;;6.50;62.80;;;;;;5027590;28;20022;-86
2022/02/19 06:00:33;;;;;;;6.20;1.70;;;6.40;62.70;;;;;;5011100;28;20032;-85
2022/02/19 06:02:59;;;;;;;7.72;2.00;;;6.40;62.70;;;;;;5014858;28;20033;-87
2022/02/19 06:05:25;;;;;;;7.85;1.75;;;6.50;62.80;;;;;;5012413;28;20037;-85
2022/02/19 06:07:50;;;;;;;8.25;1.92;;;6.40;62.80;;;;;;5016947;28;20029;-85
2022/02/19 06:10:16;;;;;;;7.82;2.10;;;6.50;62.80;;;;;;5011472;28;20032;-85
2022/02/19 06:12:41;;;;;;;5.80;1.60;;;6.50;62.80;;;;;;5018038;28;20029;-88
2022/02/19 06:15:08;;;;;;;7.30;2.20;;;6.50;62.60;;;;;;5012328;28;20080;-87
2022/02/19 06:17:34;;;;;;;9.05;1.77;;;6.50;62.70;;;;;;5004899;28;20035;-88
2022/02/19 06:19:59;;;;;;;9.50;2.00;;;6.50;62.60;;;;;;5015537;28;20030;-87
2022/02/19 06:22:25;;;;;;;5.53;1.80;;;6.50;62.60;;;;;;5018732;28;20476;-86
2022/02/19 06:24:51;;;;;;;6.85;1.73;;;6.50;62.60;;;;;;5011011;28;20388;-87
2022/02/19 06:27:16;;;;;;;10.35;1.95;;;6.60;62.70;;;;;;5005050;28;20030;-86
2022/02/19 06:29:42;;;;;;;6.63;1.98;;;6.60;62.90;;;;;;5008180;28;20021;-87
2022/02/19 06:32:09;;;;;;;6.43;1.70;;;6.50;62.90;;;;;;5011903;28;20036;-86
2022/02/19 06:34:34;;;;;;;8.80;2.00;;;6.60;63.00;;;;;;5009523;28;20022;-86
2022/02/19 06:37:00;;;;;;;5.15;1.60;;;6.60;63.00;;;;;;5002996;28;20041;-85
2022/02/19 06:39:26;;;;;;;12.93;2.30;;;6.60;63.10;;;;;;5008792;28;20040;-85
2022/02/19 06:41:52;;;;;;;7.13;1.80;;;6.60;63.10;;;;;;5010096;28;20068;-88
2022/02/19 06:44:18;;;;;;;6.43;1.67;;;6.60;63.20;;;;;;5007791;28;20473;-86
2022/02/19 06:46:43;;;;;;;5.43;1.75;;;6.60;63.30;;;;;;5008578;28;20076;-88
2022/02/19 06:49:09;;;;;;;5.93;1.75;;;6.50;63.40;;;;;;5013044;28;20041;-87
2022/02/19 06:51:35;;;;;;;7.15;1.90;;;6.60;63.60;;;;;;5012134;28;20022;-87
2022/02/19 06:54:01;;;;;;;6.07;1.85;;;6.60;63.80;;;;;;5011611;28;20026;-87
2022/02/19 06:56:30;;;;;;;5.95;1.60;;;6.60;63.80;;;;;;5015483;28;20472;-87
2022/02/19 06:58:56;;;;;;;6.38;1.85;;;6.60;63.80;;;;;;5009233;28;20038;-86
2022/02/19 07:01:21;;;;;;;11.15;1.98;;;6.60;63.70;;;;;;5010837;28;20544;-76
2022/02/19 07:03:47;;;;;;;7.38;1.63;;;6.60;63.60;;;;;;5017911;28;20077;-74
2022/02/19 07:06:13;;;;;;;6.45;2.03;;;6.50;63.60;;;;;;5008396;28;20033;-74
2022/02/19 07:08:39;;;;;;;5.65;1.70;;;6.50;63.50;;;;;;5009552;28;20498;-76
2022/02/19 07:11:04;;;;;;;10.20;2.20;;;6.60;63.60;;;;;;5007631;28;20113;-75
2022/02/19 07:13:30;;;;;;;6.63;1.80;;;6.60;63.60;;;;;;5005185;28;20109;-76
2022/02/19 07:15:56;;;;;;;6.63;1.92;;;6.60;63.50;;;;;;5012945;28;20034;-75
2022/02/19 07:18:21;;;;;;;6.15;1.55;;;6.60;63.50;;;;;;5010249;28;20057;-76
2022/02/19 07:20:47;;;;;;;6.10;1.65;;;6.60;63.50;;;;;;5005770;28;20030;-74
2022/02/19 07:23:13;;;;;;;9.65;1.95;;;6.70;63.60;;;;;;5012725;28;20029;-75
2022/02/19 07:25:40;;;;;;;5.88;1.83;;;6.70;63.60;;;;;;5007741;28;20026;-75
2022/02/19 07:28:06;;;;;;;9.27;2.10;;;6.70;63.30;;;;;;5011066;28;20033;-75
2022/02/19 07:30:34;;;;;;;7.35;1.85;;;6.60;63.40;;;;;;5012715;28;20030;-74
2022/02/19 07:32:59;;;;;;;6.35;2.17;;;6.70;63.40;;;;;;5014452;28;20022;-75
2022/02/19 07:35:25;;;;;;;4.82;1.70;;;6.70;63.60;;;;;;5009779;28;20068;-75
2022/02/19 07:37:51;;;;;;;4.85;1.50;;;6.70;63.50;;;;;;5010522;28;20041;-74
2022/02/19 07:40:17;;;;;;;5.47;1.65;;;6.80;63.60;;;;;;5010661;28;20018;-74
2022/02/19 07:42:43;;;;;;;3.45;1.48;;;6.80;63.60;;;;;;5010948;28;20122;-75
2022/02/19 07:45:09;;;;;;;7.32;2.15;;;6.80;63.60;;;;;;5007283;28;20545;-75
2022/02/19 07:47:35;;;;;;;4.20;1.50;;;6.80;63.60;;;;;;5012987;28;20136;-75
2022/02/19 07:58:18;;;;;;;8.00;2.28;;;6.80;63.80;;;;;;5008042;28;20087;-74
2022/02/19 08:00:47;;;;;;;7.38;1.63;;;6.80;63.70;;;;;;5020885;28;20083;-75
2022/02/19 08:03:13;;;;;;;5.47;1.45;;;6.80;63.70;;;;;;5002624;28;20448;-75
2022/02/19 08:05:39;;;;;;;7.05;1.70;;;6.80;63.80;;;;;;5008543;28;20026;-74
2022/02/19 08:08:05;;;;;;;7.57;2.20;;;6.80;63.90;;;;;;5007851;28;20030;-76
2022/02/19 08:10:31;;;;;;;9.05;2.05;;;6.80;63.80;;;;;;5012678;28;20373;-80
2022/02/19 08:12:57;;;;;;;10.02;2.00;;;6.80;63.70;;;;;;5008851;28;20026;-75
2022/02/19 08:15:22;;;;;;;9.23;2.00;;;6.80;63.70;;;;;;5006117;28;20032;-75
2022/02/19 08:17:48;;;;;;;8.18;1.83;;;6.80;63.70;;;;;;5010757;28;20428;-75
2022/02/19 08:20:13;;;;;;;8.88;2.05;;;6.80;63.70;;;;;;5015164;28;20022;-74
2022/02/19 08:22:39;;;;;;;6.30;2.08;;;6.90;63.60;;;;;;5012833;28;20033;-74
2022/02/19 08:25:05;;;;;;;7.15;1.75;;;6.90;63.50;;;;;;5014140;28;20399;-74
2022/02/19 08:27:34;;;;;;;6.65;1.70;;;6.90;63.50;;;;;;5015125;28;20452;-74
2022/02/19 08:30:00;;;;;;;6.22;1.85;;;7.00;63.50;;;;;;5018092;28;20040;-74
2022/02/19 08:32:26;;;;;;;9.48;1.98;;;7.00;63.50;;;;;;5009381;28;20483;-74
2022/02/19 08:34:52;;;;;;;8.07;2.35;;;7.00;63.60;;;;;;5009760;28;20034;-74
2022/02/19 08:37:17;;;;;;;4.60;1.65;;;7.00;63.70;;;;;;5014141;28;20045;-75
2022/02/19 08:39:43;;;;;;;4.32;1.55;;;7.10;63.70;;;;;;5009452;28;20109;-74
2022/02/19 08:42:09;;;;;;;5.68;1.60;;;7.20;63.60;;;;;;5007240;28;20402;-75
2022/02/19 08:44:34;;;;;;;5.20;1.80;;;7.20;63.60;;;;;;5007489;28;20025;-74
2022/02/19 08:47:00;;;;;;;6.53;1.77;;;7.20;63.50;;;;;;5006352;28;20041;-76
2022/02/19 08:49:26;;;;;;;6.55;1.50;;;7.20;63.50;;;;;;5007093;28;20032;-75
2022/02/19 08:51:51;;;;;;;6.07;1.70;;;7.20;63.50;;;;;;5007369;28;20029;-76
2022/02/19 08:54:17;;;;;;;5.03;1.45;;;7.20;63.50;;;;;;5013834;28;20052;-75
2022/02/19 08:56:44;;;;;;;6.53;1.92;;;7.20;63.30;;;;;;5019673;28;20464;-76
2022/02/19 08:59:10;;;;;;;6.25;1.90;;;7.20;63.30;;;;;;5011349;28;20120;-75
2022/02/19 09:01:35;;;;;;;6.63;2.00;;;7.20;63.50;;;;;;5020724;28;20093;-75
2022/02/19 09:04:03;;;;;;;6.53;1.80;;;7.20;63.50;;;;;;5020893;28;20018;-76
2022/02/19 09:06:30;;;;;;;5.10;1.77;;;7.30;63.40;;;;;;5011982;28;20037;-74
2022/02/19 09:08:55;;;;;;;9.77;2.25;;;7.30;63.10;;;;;;5012144;28;20132;-74
2022/02/19 09:11:21;;;;;;;6.85;1.65;;;7.40;63.10;;;;;;5014512;28;20113;-74
2022/02/19 09:13:47;;;;;;;7.60;2.05;;;7.40;63.00;;;;;;5018391;28;20464;-73
2022/02/19 09:16:13;;;;;;;5.90;1.73;;;7.50;62.90;;;;;;5025729;28;20623;-75
2022/02/19 09:18:38;;;;;;;9.43;2.30;;;7.50;62.60;;;;;;5012776;28;20038;-75
2022/02/19 09:21:04;;;;;;;11.07;1.85;;;7.60;62.40;;;;;;5023471;28;20025;-75
2022/02/19 09:23:29;;;;;;;6.82;1.90;;;7.60;62.10;;;;;;5019736;28;20057;-75
2022/02/19 09:25:55;;;;;;;8.02;1.80;;;7.60;62.00;;;;;;5021683;28;20095;-75
2022/02/19 09:28:24;;;;;;;6.00;2.00;;;7.60;61.80;;;;;;5013773;28;20400;-75
2022/02/19 09:30:49;;;;;;;6.18;1.52;;;7.60;61.90;;;;;;5011930;28;20030;-74
2022/02/19 09:33:15;;;;;;;5.07;1.35;;;7.70;62.00;;;;;;5014656;28;20095;-75
2022/02/19 09:35:40;;;;;;;6.20;1.60;;;7.80;62.00;;;;;;5026933;28;20037;-74
2022/02/19 09:38:07;;;;;;;8.48;1.83;;;7.70;61.80;;;;;;5015604;28;20481;-74
2022/02/19 09:40:32;;;;;;;7.78;2.10;;;7.60;61.80;;;;;;5010241;28;20626;-75
2022/02/19 09:42:58;;;;;;;5.63;1.63;;;7.70;62.00;;;;;;5023652;28;20020;-74
2022/02/19 09:45:29;;;;;;;6.20;1.90;;;7.70;62.00;;;;;;5020573;28;20040;-75
2022/02/19 09:47:57;;;;;;;7.38;1.88;;;7.80;62.10;;;;;;5018024;28;20500;-75
2022/02/19 09:50:27;;;;;;;10.10;2.20;;;7.90;62.00;;;;;;5018570;28;20026;-75
2022/02/19 09:52:53;;;;;;;9.30;2.45;;;8.00;61.80;;;;;;5023113;28;20488;-75
2022/02/19 09:55:18;;;;;;;7.15;2.25;;;7.90;61.80;;;;;;5015393;28;20108;-75
2022/02/19 09:57:44;;;;;;;10.70;2.05;;;7.90;62.00;;;;;;5010270;28;20394;-75
2022/02/19 10:00:10;;;;;;;7.78;2.17;;;7.90;62.10;;;;;;5012714;28;20527;-75
2022/02/19 10:02:36;;;;;;;9.98;2.13;;;7.90;62.00;;;;;;5013186;28;20025;-74
2022/02/19 10:05:11;;;;;;;8.30;1.92;;;7.90;62.00;;;;;;5008346;28;20040;-75
2022/02/19 10:07:37;;;;;;;13.02;1.92;;;7.90;62.00;;;;;;5004427;28;20080;-75
2022/02/19 10:10:03;;;;;;;6.95;1.65;;;7.90;62.00;;;;;;5010239;28;20097;-75
2022/02/19 10:12:44;;;;;;;8.57;1.90;;;7.90;62.00;;;;;;5006561;28;20069;-75
2022/02/19 10:15:09;;;;;;;6.03;1.65;;;8.10;62.00;;;;;;5013558;28;20022;-75
2022/02/19 10:17:38;;;;;;;5.47;1.75;;;8.20;61.50;;;;;;5018136;28;20152;-75
2022/02/19 10:20:09;;;;;;;8.70;2.15;;;8.20;61.20;;;;;;5018157;28;20025;-75
2022/02/19 10:22:37;;;;;;;9.27;2.20;;;8.20;60.90;;;;;;5012440;28;20033;-75
2022/02/19 10:25:15;;;;;;;8.35;1.90;;;8.20;60.70;;;;;;5014665;28;20030;-74
2022/02/19 10:27:47;;;;;;;7.07;1.60;;;8.20;60.90;;;;;;5014190;28;20068;-75
2022/02/19 10:30:19;;;;;;;9.93;2.58;;;8.20;60.80;;;;;;5011910;28;20048;-74
2022/02/19 10:32:57;;;;;;;6.47;1.92;;;8.20;60.10;;;;;;5013338;28;20029;-74
2022/02/19 10:35:38;;;;;;;8.23;2.13;;;8.20;60.00;;;;;;5027656;28;20522;-74
2022/02/19 10:38:08;;;;;;;8.00;1.80;;;8.20;60.20;;;;;;5021096;28;20505;-75
2022/02/19 10:40:43;;;;;;;6.68;1.70;;;8.20;60.50;;;;;;5019312;28;20049;-74
2022/02/19 10:43:29;;;;;;;8.35;2.13;;;8.10;60.90;;;;;;5018124;28;20535;-75
2022/02/19 10:46:03;;;;;;;7.22;2.17;;;8.10;61.10;;;;;;5010090;28;20041;-74
2022/02/19 10:48:38;;;;;;;5.85;1.75;;;8.20;61.30;;;;;;5019060;28;20040;-74
2022/02/19 10:51:12;;;;;;;6.85;1.90;;;8.20;61.00;;;;;;5020969;28;20025;-74
2022/02/19 10:53:39;;;;;;;6.03;2.22;;;8.20;60.90;;;;;;5013988;28;20025;-75
2022/02/19 10:56:16;;;;;;;5.95;1.77;;;8.30;60.70;;;;;;5010235;28;20030;-74
2022/02/19 10:59:00;;;;;;;6.82;2.00;;;8.30;60.70;;;;;;5009602;28;20045;-74
2022/02/19 11:01:26;;;;;;;8.65;2.20;;;8.40;60.40;;;;;;5016654;28;20034;-74
2022/02/19 11:03:52;;;;;;;6.80;1.90;;;8.50;59.90;;;;;;5008962;28;20018;-74
2022/02/19 11:06:18;;;;;;;7.60;1.67;;;8.50;59.50;;;;;;5008706;28;20046;-74
2022/02/19 11:08:45;;;;;;;6.93;1.60;;;8.60;59.30;;;;;;5008625;28;20100;-74
2022/02/19 11:11:11;;;;;;;5.32;1.88;;;8.70;59.30;;;;;;5016176;28;20022;-74
2022/02/19 11:13:37;;;;;;;4.10;1.60;;;8.70;59.90;;;;;;5011679;28;20452;-75
2022/02/19 11:16:06;;;;;;;7.82;2.15;;;8.70;59.40;;;;;;5013248;28;20021;-74
2022/02/19 11:18:36;;;;;;;7.68;2.20;;;8.70;59.70;;;;;;5013028;28;20029;-74
2022/02/19 11:21:04;;;;;;;4.13;1.50;;;8.70;60.30;;;;;;5014115;28;20028;-74
2022/02/19 11:23:34;;;;;;;6.88;1.80;;;8.60;60.60;;;;;;5011205;28;20025;-74
2022/02/19 11:26:01;;;;;;;5.82;1.88;;;8.70;61.30;;;;;;5009881;28;20121;-74
2022/02/19 11:28:31;;;;;;;5.97;2.17;;;8.60;61.80;;;;;;5007169;28;20022;-74
2022/02/19 11:30:57;;;;;;;6.35;1.58;;;8.70;62.20;;;;;;5013953;28;20036;-74
2022/02/19 11:33:25;;;;;;;5.35;1.92;;;8.80;62.10;;;;;;5016113;28;20040;-74
2022/02/19 11:35:51;;;;;;;7.45;1.67;;;8.90;61.70;;;;;;5018076;28;20117;-74
2022/02/19 11:38:28;;;;;;;5.60;1.65;;;9.00;61.50;;;;;;5017869;28;20431;-74
2022/02/19 11:40:56;;;;;;;7.55;1.98;;;9.00;60.70;;;;;;5001228;28;20095;-73
2022/02/19 11:43:42;;;;;;;6.53;1.65;;;9.00;60.30;;;;;;5007835;28;20057;-74
2022/02/19 11:46:27;;;;;;;5.60;1.83;;;9.10;59.20;;;;;;5010683;28;20040;-74
2022/02/19 11:48:53;;;;;;;5.05;1.40;;;9.20;57.60;;;;;;5012004;28;20125;-74
2022/02/19 11:51:20;;;;;;;7.07;1.80;;;9.30;57.40;;;;;;5008101;28;20064;-75
2022/02/19 11:54:13;;;;;;;7.47;2.17;;;9.30;57.00;;;;;;5007100;28;20022;-75
2022/02/19 11:56:41;;;;;;;5.43;1.70;;;9.30;56.70;;;;;;5005321;28;20503;-74
2022/02/19 11:59:09;;;;;;;6.10;1.52;;;9.30;56.70;;;;;;5005336;28;20037;-74
2022/02/19 12:01:36;;;;;;;6.97;1.83;;;9.20;57.10;;;;;;5014156;28;20018;-74
2022/02/19 12:04:08;;;;;;;4.28;1.73;;;9.30;56.70;;;;;;5007237;28;20026;-74
2022/02/19 12:06:33;;;;;;;6.60;1.77;;;9.40;56.60;;;;;;5007287;28;20061;-74
2022/02/19 12:09:16;;;;;;;6.57;1.90;;;9.50;56.40;;;;;;5011886;28;20029;-74
2022/02/19 12:12:06;;;;;;;7.68;1.80;;;9.60;56.60;;;;;;5005620;28;20037;-74
2022/02/19 12:14:47;;;;;;;6.47;1.85;;;9.70;56.20;;;;;;5008645;28;20034;-74
2022/02/19 12:17:21;;;;;;;6.40;1.65;;;9.80;56.00;;;;;;5007650;28;20018;-74
2022/02/19 12:19:52;;;;;;;5.22;1.50;;;9.70;56.00;;;;;;5014998;28;20112;-74
2022/02/19 12:22:44;;;;;;;7.03;1.88;;;9.60;55.90;;;;;;5013624;28;20069;-74
2022/02/19 12:25:11;;;;;;;5.80;1.50;;;9.80;56.30;;;;;;5013174;28;20033;-74
2022/02/19 12:27:39;;;;;;;6.47;2.03;;;10.00;56.00;;;;;;5010613;28;20611;-74
2022/02/19 12:30:23;;;;;;;7.65;2.17;;;9.90;56.20;;;;;;5016453;28;20036;-75
2022/02/19 12:32:52;;;;;;;6.88;2.00;;;9.90;56.20;;;;;;5007447;28;20033;-75
2022/02/19 12:35:18;;;;;;;7.38;1.80;;;9.80;56.40;;;;;;5011541;28;20097;-75
2022/02/19 12:37:44;;;;;;;9.48;2.50;;;9.80;56.50;;;;;;5014056;28;20022;-75
2022/02/19 12:40:15;;;;;;;7.85;1.90;;;9.80;56.70;;;;;;5012336;28;20430;-75
2022/02/19 12:42:46;;;;;;;4.65;1.60;;;9.70;57.00;;;;;;5010813;28;20542;-75
2022/02/19 12:45:11;;;;;;;9.65;1.90;;;9.80;57.00;;;;;;5015068;28;20037;-75
2022/02/19 12:47:38;;;;;;;6.03;1.73;;;9.80;56.10;;;;;;5017535;28;20545;-75
2022/02/19 12:50:06;;;;;;;6.60;1.40;;;9.70;55.40;;;;;;5015922;28;20102;-75
2022/02/19 12:52:32;;;;;;;5.10;1.55;;;9.80;55.50;;;;;;5020807;28;20507;-75
2022/02/19 12:54:57;;;;;;;6.57;1.67;;;9.80;55.60;;;;;;5014371;28;20165;-74
2022/02/19 12:57:23;;;;;;;5.70;1.60;;;9.90;54.90;;;;;;5019305;28;20361;-75
2022/02/19 12:59:54;;;;;;;6.53;1.80;;;9.90;54.60;;;;;;5019479;28;20022;-74
2022/02/19 13:02:21;;;;;;;5.07;1.30;;;9.90;54.30;;;;;;5014225;28;20037;-74